Bonito, Brazil
Current Conditions -  °F | °C
As of 9:00 AM on Tuesday 27 Jan 2015 (Local Time) from SBPP Reporting Station
Light Rain Light Rain  
Wind Chill: 70°   Ceiling: 400
Heat Index: 70°   Visibility: 6mi
Dew Point: 70°   Wind: 9mph
Humidity: 100%   Direction: 10°N
Pressure: 30"   Gusts: NA
Location:  21.12°S, 56.48°W
Report Text: SBPP 271200Z 01008KT -RA BR OVC004 21/21 Q1016
Loading
Personal Weather Stations






























Interactive Weather Map New forecast layout! Learn more

10-Day Weather Forecast

Advertisements
Track Severe Weather on mobile